createdAt,value
2022-09-23T00:00:16.673Z,99.99
2022-09-23T00:01:16.727Z,99.99
2022-09-23T00:02:16.659Z,99.99
2022-09-23T00:03:16.575Z,99.99
2022-09-23T00:04:16.618Z,99.99
2022-09-23T00:05:16.557Z,99.99
2022-09-23T00:06:16.565Z,99.99
2022-09-23T00:07:16.546Z,99.99
2022-09-23T00:08:16.551Z,99.99
2022-09-23T00:09:16.517Z,99.99
2022-09-23T00:10:16.567Z,99.99
2022-09-23T00:11:16.501Z,99.99
2022-09-23T00:12:16.474Z,99.99
2022-09-23T00:13:16.465Z,99.99
2022-09-23T00:14:16.497Z,99.99
2022-09-23T00:15:16.461Z,99.99
2022-09-23T00:16:16.504Z,99.99
2022-09-23T00:17:16.417Z,99.99
2022-09-23T00:18:16.445Z,99.99
2022-09-23T00:19:16.439Z,99.99
2022-09-23T00:20:16.392Z,99.99
2022-09-23T00:21:16.389Z,99.99
2022-09-23T00:22:16.372Z,99.99
2022-09-23T00:23:16.363Z,99.99
2022-09-23T00:24:16.429Z,99.99
2022-09-23T00:25:16.345Z,99.99
2022-09-23T00:26:16.330Z,99.99
2022-09-23T00:27:16.333Z,99.99
2022-09-23T00:28:16.320Z,99.99
2022-09-23T00:29:16.332Z,99.99
2022-09-23T00:30:16.291Z,99.99
2022-09-23T00:31:16.351Z,99.99
2022-09-23T00:32:16.282Z,99.99
2022-09-23T00:33:16.259Z,99.99
2022-09-23T00:34:16.395Z,99.99
2022-09-23T00:35:16.215Z,99.99
2022-09-23T00:36:16.216Z,99.99
2022-09-23T00:37:16.194Z,99.99
2022-09-23T00:38:16.195Z,99.99
2022-09-23T00:39:16.191Z,99.99
2022-09-23T00:40:16.285Z,99.99
2022-09-23T00:41:16.208Z,99.99
2022-09-23T00:42:16.178Z,99.99
2022-09-23T00:43:16.164Z,99.99
2022-09-23T00:44:16.139Z,99.99
2022-09-23T00:45:16.170Z,99.99
2022-09-23T00:46:16.162Z,99.99
2022-09-23T00:47:16.078Z,99.99
2022-09-23T00:48:16.116Z,99.99
2022-09-23T00:49:16.127Z,99.99
2022-09-23T00:50:16.049Z,99.99
2022-09-23T00:51:16.057Z,99.99
2022-09-23T00:52:16.044Z,99.99
2022-09-23T00:53:16.030Z,99.99
2022-09-23T00:54:16.069Z,99.99
2022-09-23T00:55:16.008Z,99.99
2022-09-23T00:56:16.000Z,99.99
2022-09-23T00:57:15.971Z,99.99
2022-09-23T00:58:15.983Z,99.99
2022-09-23T00:59:15.993Z,99.99
2022-09-23T01:00:15.957Z,99.99
2022-09-23T01:01:15.990Z,99.99
2022-09-23T01:02:15.969Z,99.99
2022-09-23T01:03:15.911Z,99.99
2022-09-23T01:04:15.941Z,99.99
2022-09-23T01:05:15.886Z,99.99
2022-09-23T01:06:15.855Z,99.99
2022-09-23T01:07:15.850Z,99.99
2022-09-23T01:08:15.836Z,99.99
2022-09-23T01:09:15.859Z,99.99
2022-09-23T01:10:15.893Z,99.99
2022-09-23T01:11:15.850Z,99.99
2022-09-23T01:12:15.814Z,99.99
2022-09-23T01:13:15.800Z,99.99
2022-09-23T01:14:15.813Z,99.99
2022-09-23T01:15:15.820Z,99.99
2022-09-23T01:16:15.828Z,99.99
2022-09-23T01:17:15.743Z,99.99
2022-09-23T01:18:15.744Z,99.99
2022-09-23T01:19:15.762Z,99.99
2022-09-23T01:20:15.714Z,99.99
2022-09-23T01:21:15.712Z,99.99
2022-09-23T01:22:15.699Z,99.99
2022-09-23T01:23:15.701Z,99.99
2022-09-23T01:24:15.746Z,99.99
2022-09-23T01:25:15.652Z,99.99
2022-09-23T01:26:15.663Z,99.99
2022-09-23T01:27:15.628Z,99.99
2022-09-23T01:28:15.636Z,99.99
2022-09-23T01:29:15.656Z,99.99
2022-09-23T01:30:15.658Z,99.99
2022-09-23T01:31:15.645Z,99.99
2022-09-23T01:32:15.601Z,99.99
2022-09-23T01:33:15.583Z,99.99
2022-09-23T01:34:15.587Z,99.99
2022-09-23T01:35:15.593Z,99.99
2022-09-23T01:36:15.541Z,99.99
2022-09-23T01:37:15.502Z,99.99
2022-09-23T01:38:15.517Z,99.99
2022-09-23T01:39:15.522Z,99.99
2022-09-23T01:40:15.579Z,99.99
2022-09-23T01:41:15.487Z,99.99
2022-09-23T01:42:15.479Z,99.99
2022-09-23T01:43:15.458Z,99.99
2022-09-23T01:44:15.486Z,99.99
2022-09-23T01:45:15.455Z,99.99
2022-09-23T01:46:15.428Z,99.99
2022-09-23T01:47:15.430Z,99.99
2022-09-23T01:48:15.532Z,99.99
2022-09-23T01:49:15.416Z,99.99
2022-09-23T01:50:15.368Z,99.99
2022-09-23T01:51:15.384Z,99.99
2022-09-23T01:52:15.357Z,99.99
2022-09-23T01:53:15.348Z,99.99
2022-09-23T01:54:15.387Z,99.99
2022-09-23T01:55:15.339Z,99.99
2022-09-23T01:56:15.321Z,99.99
2022-09-23T01:57:15.293Z,99.99
2022-09-23T01:58:15.303Z,99.99
2022-09-23T01:59:15.323Z,99.99
2022-09-23T02:00:15.279Z,99.99
2022-09-23T02:01:15.320Z,99.99
2022-09-23T02:02:15.416Z,99.99
2022-09-23T02:03:15.237Z,99.99
2022-09-23T02:04:15.271Z,99.99
2022-09-23T02:05:15.216Z,99.99
2022-09-23T02:06:15.202Z,99.99
2022-09-23T02:07:15.214Z,99.99
2022-09-23T02:08:15.173Z,99.99
2022-09-23T02:09:15.196Z,99.99
2022-09-23T02:10:15.152Z,99.99
2022-09-23T02:11:15.137Z,99.99
2022-09-23T02:12:15.136Z,99.99
2022-09-23T02:13:15.137Z,99.99
2022-09-23T02:14:15.151Z,99.99
2022-09-23T02:15:15.106Z,99.99
2022-09-23T02:16:15.179Z,99.99
2022-09-23T02:17:15.085Z,99.99
2022-09-23T02:18:15.075Z,99.99
2022-09-23T02:19:15.114Z,99.99
2022-09-23T02:20:15.052Z,99.99
2022-09-23T02:21:15.029Z,99.99
2022-09-23T02:22:15.023Z,99.99
2022-09-23T02:23:15.028Z,99.99
2022-09-23T02:24:15.041Z,99.99
2022-09-23T02:25:14.991Z,99.99
2022-09-23T02:26:14.976Z,99.99
2022-09-23T02:27:14.973Z,99.99
2022-09-23T02:28:14.965Z,99.99
2022-09-23T02:29:14.976Z,99.99
2022-09-23T02:30:14.938Z,99.99
2022-09-23T02:31:14.931Z,99.99
2022-09-23T02:32:15.021Z,99.99
2022-09-23T02:33:14.893Z,99.99
2022-09-23T02:34:14.906Z,99.99
2022-09-23T02:35:14.917Z,99.99
2022-09-23T02:36:14.879Z,99.99
2022-09-23T02:37:14.843Z,99.99
2022-09-23T02:38:14.838Z,99.99
2022-09-23T02:39:14.812Z,99.99
2022-09-23T02:40:14.905Z,99.99
2022-09-23T02:41:14.777Z,99.99
2022-09-23T02:42:14.788Z,99.99
2022-09-23T02:43:14.798Z,99.99
2022-09-23T02:44:14.783Z,99.99
2022-09-23T02:45:14.797Z,99.99
2022-09-23T02:46:14.782Z,99.99
2022-09-23T02:47:14.730Z,99.99
2022-09-23T02:48:14.731Z,99.99
2022-09-23T02:49:14.716Z,99.99
2022-09-23T02:50:14.762Z,99.99
2022-09-23T02:51:14.701Z,99.99
2022-09-23T02:52:14.698Z,99.99
2022-09-23T02:53:14.679Z,99.99
2022-09-23T02:54:14.684Z,99.99
2022-09-23T02:55:14.690Z,99.99
2022-09-23T02:56:14.636Z,99.99
2022-09-23T02:57:14.641Z,99.99
2022-09-23T02:58:14.616Z,99.99
2022-09-23T02:59:14.617Z,99.99
2022-09-23T03:00:14.646Z,99.99
2022-09-23T03:01:14.706Z,99.99
2022-09-23T03:02:14.637Z,99.99
2022-09-23T03:03:14.570Z,99.99
2022-09-23T03:04:14.569Z,99.99
2022-09-23T03:05:14.583Z,99.99
2022-09-23T03:06:14.551Z,99.99
2022-09-23T03:07:14.516Z,99.99
2022-09-23T03:08:14.518Z,99.99
2022-09-23T03:09:14.533Z,99.99
2022-09-23T03:10:14.499Z,99.99
2022-09-23T03:11:14.450Z,99.99
2022-09-23T03:12:14.453Z,99.99
2022-09-23T03:13:14.434Z,99.99
2022-09-23T03:14:14.487Z,99.99
2022-09-23T03:15:14.425Z,99.99
2022-09-23T03:16:14.467Z,99.99
2022-09-23T03:17:14.421Z,99.99
2022-09-23T03:18:14.393Z,99.99
2022-09-23T03:19:14.418Z,99.99
2022-09-23T03:20:14.351Z,99.99
2022-09-23T03:21:14.354Z,99.99
2022-09-23T03:22:14.344Z,99.99
2022-09-23T03:23:14.337Z,99.99
2022-09-23T03:24:14.365Z,99.99
2022-09-23T03:25:14.319Z,99.99
2022-09-23T03:26:14.282Z,99.99
2022-09-23T03:27:14.300Z,99.99
2022-09-23T03:28:14.272Z,99.99
2022-09-23T03:29:14.307Z,99.99
2022-09-23T03:30:14.252Z,99.99
2022-09-23T03:31:14.350Z,99.99
2022-09-23T03:32:14.243Z,99.99
2022-09-23T03:33:14.210Z,99.99
2022-09-23T03:34:14.263Z,99.99
2022-09-23T03:35:14.206Z,99.99
2022-09-23T03:36:14.187Z,99.99
2022-09-23T03:37:14.190Z,99.99
2022-09-23T03:38:14.178Z,99.99
2022-09-23T03:39:14.251Z,99.99
2022-09-23T03:40:14.194Z,99.99
2022-09-23T03:41:14.121Z,99.99
2022-09-23T03:42:14.112Z,99.99
2022-09-23T03:43:14.099Z,99.99
2022-09-23T03:44:14.097Z,99.99
2022-09-23T03:45:14.121Z,99.99
2022-09-23T03:46:14.093Z,99.99
2022-09-23T03:47:14.072Z,99.99
2022-09-23T03:48:14.041Z,99.99
2022-09-23T03:49:14.088Z,99.99
2022-09-23T03:50:14.037Z,99.99
2022-09-23T03:51:14.015Z,99.99
2022-09-23T03:52:14.026Z,99.99
2022-09-23T03:53:14.007Z,99.99
2022-09-23T03:54:14.015Z,99.99
2022-09-23T03:55:13.972Z,99.99
2022-09-23T03:56:13.976Z,99.99
2022-09-23T03:57:13.951Z,99.99
2022-09-23T03:58:13.957Z,99.99
2022-09-23T03:59:13.941Z,99.99
2022-09-23T04:00:13.964Z,99.99
2022-09-23T04:01:13.947Z,99.99
2022-09-23T04:02:13.932Z,99.99
2022-09-23T04:03:13.896Z,99.99
2022-09-23T04:04:13.899Z,99.99
2022-09-23T04:05:13.878Z,99.99
2022-09-23T04:06:13.841Z,99.99
2022-09-23T04:07:13.852Z,99.99
2022-09-23T04:08:13.848Z,99.99
2022-09-23T04:09:13.864Z,99.99
2022-09-23T04:10:13.840Z,99.99
2022-09-23T04:11:13.796Z,99.99
2022-09-23T04:12:13.791Z,99.99
2022-09-23T04:13:13.758Z,99.99
2022-09-23T04:14:13.749Z,99.99
2022-09-23T04:15:13.774Z,99.99
2022-09-23T04:16:13.764Z,99.99
2022-09-23T04:17:13.742Z,99.99
2022-09-23T04:18:13.700Z,99.99
2022-09-23T04:19:13.896Z,99.99
2022-09-23T04:20:13.689Z,99.99
2022-09-23T04:21:13.698Z,99.99
2022-09-23T04:22:13.672Z,99.99
2022-09-23T04:23:13.669Z,99.99
2022-09-23T04:24:13.648Z,99.99
2022-09-23T04:25:13.714Z,99.99
2022-09-23T04:26:13.649Z,99.99
2022-09-23T04:27:13.611Z,99.99
2022-09-23T04:28:13.607Z,99.99
2022-09-23T04:29:13.609Z,99.99
2022-09-23T04:30:13.627Z,99.99
2022-09-23T04:31:13.632Z,99.99
2022-09-23T04:32:14.539Z,99.99
2022-09-23T04:33:13.566Z,99.99
2022-09-23T04:34:13.581Z,99.99
2022-09-23T04:35:13.540Z,99.99
2022-09-23T04:36:13.517Z,99.99
2022-09-23T04:37:13.520Z,99.99
2022-09-23T04:38:13.504Z,99.99
2022-09-23T04:39:13.526Z,99.99
2022-09-23T04:40:13.535Z,99.99
2022-09-23T04:41:13.455Z,99.99
2022-09-23T04:42:13.448Z,99.99
2022-09-23T04:43:13.687Z,99.99
2022-09-23T04:44:13.460Z,99.99
2022-09-23T04:45:13.407Z,99.99
2022-09-23T04:46:13.424Z,99.99
2022-09-23T04:47:13.405Z,99.99
2022-09-23T04:48:13.398Z,99.99
2022-09-23T04:49:13.420Z,99.99
2022-09-23T04:50:13.350Z,99.99
2022-09-23T04:51:13.358Z,99.99
2022-09-23T04:52:13.334Z,99.99
2022-09-23T04:53:13.336Z,99.99
2022-09-23T04:54:13.363Z,99.99
2022-09-23T04:55:13.322Z,99.99
2022-09-23T04:56:13.285Z,99.99
2022-09-23T04:57:13.273Z,99.99
2022-09-23T04:58:13.270Z,99.99
2022-09-23T04:59:13.308Z,99.99
2022-09-23T05:00:13.256Z,99.99
2022-09-23T05:01:13.428Z,99.99
2022-09-23T05:02:13.292Z,99.99
2022-09-23T05:03:13.216Z,99.99
2022-09-23T05:04:13.237Z,99.99
2022-09-23T05:05:13.206Z,99.99
2022-09-23T05:06:13.176Z,99.99
2022-09-23T05:07:13.174Z,99.99
2022-09-23T05:08:13.148Z,99.99
2022-09-23T05:09:13.184Z,99.99
2022-09-23T05:10:13.144Z,99.99
2022-09-23T05:11:13.186Z,99.99
2022-09-23T05:12:13.122Z,99.99
2022-09-23T05:13:13.114Z,99.99
2022-09-23T05:14:13.121Z,99.99
2022-09-23T05:15:13.083Z,99.99
2022-09-23T05:16:13.060Z,99.99
2022-09-23T05:17:13.070Z,99.99
2022-09-23T05:18:13.035Z,99.99
2022-09-23T05:19:13.078Z,99.99
2022-09-23T05:20:13.030Z,99.99
2022-09-23T05:21:13.026Z,99.99
2022-09-23T05:22:12.999Z,99.99
2022-09-23T05:23:12.976Z,99.99
2022-09-23T05:24:13.017Z,99.99
2022-09-23T05:25:12.976Z,99.99
2022-09-23T05:26:12.947Z,99.99
2022-09-23T05:27:12.961Z,99.99
2022-09-23T05:28:12.946Z,99.99
2022-09-23T05:29:12.951Z,99.99
2022-09-23T05:30:12.965Z,99.99
2022-09-23T05:31:18.710Z,99.99
2022-09-23T05:32:13.886Z,99.99
2022-09-23T05:33:12.891Z,99.99
2022-09-23T05:34:12.904Z,99.99
2022-09-23T05:35:12.857Z,99.99
2022-09-23T05:36:12.851Z,99.99
2022-09-23T05:37:12.835Z,99.99
2022-09-23T05:38:12.848Z,99.99
2022-09-23T05:39:12.866Z,99.99
2022-09-23T05:40:12.844Z,99.99
2022-09-23T05:41:12.802Z,99.99
2022-09-23T05:42:12.772Z,99.99
2022-09-23T05:43:12.770Z,99.99
2022-09-23T05:44:12.795Z,99.99
2022-09-23T05:45:12.752Z,99.99
2022-09-23T05:46:12.824Z,99.99
2022-09-23T05:47:12.717Z,99.99
2022-09-23T05:48:12.713Z,99.99
2022-09-23T05:49:12.797Z,99.99
2022-09-23T05:50:12.692Z,99.99
2022-09-23T05:51:12.695Z,99.99
2022-09-23T05:52:12.668Z,99.99
2022-09-23T05:53:12.667Z,99.99
2022-09-23T05:54:12.681Z,99.99
2022-09-23T05:55:12.636Z,99.99
2022-09-23T05:56:12.640Z,99.99
2022-09-23T05:57:12.626Z,99.99
2022-09-23T05:58:12.588Z,99.99
2022-09-23T05:59:12.618Z,99.99
2022-09-23T06:00:12.569Z,99.99
2022-09-23T06:01:12.548Z,99.99
2022-09-23T06:02:12.596Z,99.99
2022-09-23T06:03:12.585Z,99.99
2022-09-23T06:04:12.568Z,99.99
2022-09-23T06:05:12.530Z,99.99
2022-09-23T06:06:12.521Z,99.99
2022-09-23T06:07:12.497Z,99.99
2022-09-23T06:08:12.490Z,99.99
2022-09-23T06:09:12.507Z,99.99
2022-09-23T06:10:12.449Z,99.99
2022-09-23T06:11:12.457Z,99.99
2022-09-23T06:12:12.436Z,99.99
2022-09-23T06:13:12.449Z,99.99
2022-09-23T06:14:12.466Z,99.99
2022-09-23T06:15:12.429Z,99.99
2022-09-23T06:16:12.460Z,99.99
2022-09-23T06:17:12.385Z,99.99
2022-09-23T06:18:12.362Z,99.99
2022-09-23T06:19:12.386Z,99.99
2022-09-23T06:20:12.335Z,99.99
2022-09-23T06:21:12.359Z,99.99
2022-09-23T06:22:12.339Z,99.99
2022-09-23T06:23:12.315Z,99.99
2022-09-23T06:24:17.961Z,99.99
2022-09-23T06:25:13.308Z,99.99
2022-09-23T06:26:12.295Z,99.99
2022-09-23T06:27:12.279Z,99.99
2022-09-23T06:28:12.258Z,99.99
2022-09-23T06:29:12.297Z,99.99
2022-09-23T06:30:12.240Z,99.99
2022-09-23T06:31:13.623Z,99.99
2022-09-23T06:32:12.202Z,99.99
2022-09-23T06:33:12.201Z,99.99
2022-09-23T06:34:13.717Z,99.99
2022-09-23T06:35:22.995Z,99.99
2022-09-23T06:36:16.031Z,99.99
2022-09-23T06:37:19.747Z,99.99
2022-09-23T06:38:13.140Z,99.99
2022-09-23T06:39:12.201Z,99.99
2022-09-23T06:40:12.177Z,99.99
2022-09-23T06:41:12.114Z,99.99
2022-09-23T06:42:12.127Z,99.99
2022-09-23T06:43:12.109Z,99.99
2022-09-23T06:44:12.074Z,99.99
2022-09-23T06:45:12.110Z,99.99
2022-09-23T06:46:12.086Z,99.99
2022-09-23T06:47:12.035Z,99.99
2022-09-23T06:48:12.036Z,99.99
2022-09-23T06:49:12.049Z,99.98
2022-09-23T06:50:12.011Z,97.53
2022-09-23T06:51:11.993Z,97.16
2022-09-23T06:52:12.089Z,99.27
2022-09-23T06:53:11.980Z,95.22
2022-09-23T06:54:11.998Z,96.34
2022-09-23T06:55:11.968Z,97.42
2022-09-23T06:56:11.944Z,97.49
2022-09-23T06:57:11.938Z,98.86
2022-09-23T06:58:11.932Z,95.39
2022-09-23T06:59:11.958Z,95.19
2022-09-23T07:00:11.908Z,94.07
2022-09-23T07:01:11.952Z,94.58
2022-09-23T07:02:12.011Z,95.35
2022-09-23T07:03:11.878Z,96.73
2022-09-23T07:04:11.881Z,96.18
2022-09-23T07:05:11.859Z,91.22
2022-09-23T07:06:11.858Z,94.85
2022-09-23T07:07:11.818Z,90.41
2022-09-23T07:08:11.822Z,92.59
2022-09-23T07:09:11.841Z,96.38
2022-09-23T07:10:11.787Z,93.07
2022-09-23T07:11:11.787Z,91.24
2022-09-23T07:12:11.766Z,89.61
2022-09-23T07:13:16.061Z,91.75
2022-09-23T07:14:11.805Z,88.69
2022-09-23T07:15:11.757Z,92.83
2022-09-23T07:16:11.794Z,94.21
2022-09-23T07:17:11.711Z,92.94
2022-09-23T07:18:11.710Z,89.95
2022-09-23T07:19:11.736Z,88.87
2022-09-23T07:20:11.668Z,90.77
2022-09-23T07:21:11.649Z,91.43
2022-09-23T07:22:11.642Z,91.29
2022-09-23T07:23:11.652Z,88.04
2022-09-23T07:24:11.693Z,87.73
2022-09-23T07:25:11.631Z,89.83
2022-09-23T07:26:11.629Z,91.30
2022-09-23T07:27:11.611Z,89.28
2022-09-23T07:28:11.600Z,86.22
2022-09-23T07:29:11.603Z,86.43
2022-09-23T07:30:22.619Z,85.25
2022-09-23T07:31:12.731Z,91.41
2022-09-23T07:32:14.254Z,90.25
2022-09-23T07:33:26.552Z,90.51
2022-09-23T07:34:12.581Z,90.22
2022-09-23T07:35:11.509Z,90.18
2022-09-23T07:36:11.498Z,85.31
2022-09-23T07:37:11.504Z,79.72
2022-09-23T07:38:11.487Z,83.54
2022-09-23T07:39:11.482Z,86.86
2022-09-23T07:40:11.549Z,88.13
2022-09-23T07:41:11.430Z,86.57
2022-09-23T07:42:11.428Z,83.69
2022-09-23T07:43:11.414Z,85.11
2022-09-23T07:44:11.456Z,84.61
2022-09-23T07:45:11.413Z,87.30
2022-09-23T07:46:11.420Z,84.33
2022-09-23T07:47:11.366Z,84.93
2022-09-23T07:48:11.365Z,79.67
2022-09-23T07:49:11.387Z,83.51
2022-09-23T07:50:11.345Z,78.69
2022-09-23T07:51:11.313Z,84.36
2022-09-23T07:52:11.305Z,85.90
2022-09-23T07:53:11.274Z,78.86
2022-09-23T07:54:11.324Z,78.96
2022-09-23T07:55:11.276Z,79.13
2022-09-23T07:56:11.280Z,81.25
2022-09-23T07:57:11.265Z,82.73
2022-09-23T07:58:11.242Z,75.38
2022-09-23T07:59:11.262Z,74.91
2022-09-23T08:00:11.237Z,81.65
2022-09-23T08:01:11.254Z,82.18
2022-09-23T08:02:11.234Z,78.71
2022-09-23T08:03:11.212Z,81.46
2022-09-23T08:04:11.236Z,76.11
2022-09-23T08:05:11.173Z,77.59
2022-09-23T08:06:11.207Z,71.44
2022-09-23T08:07:11.151Z,74.36
2022-09-23T08:08:11.145Z,72.68
2022-09-23T08:09:11.202Z,73.66
2022-09-23T08:10:11.124Z,77.76
2022-09-23T08:11:11.110Z,74.36
2022-09-23T08:12:15.314Z,74.29
2022-09-23T08:13:12.085Z,71.47
2022-09-23T08:14:11.101Z,69.65
2022-09-23T08:15:11.054Z,72.51
2022-09-23T08:16:11.092Z,77.23
2022-09-23T08:17:11.023Z,75.98
2022-09-23T08:18:11.034Z,72.55
2022-09-23T08:19:11.040Z,72.51
2022-09-23T08:20:11.018Z,73.82
2022-09-23T08:21:11.006Z,75.47
2022-09-23T08:22:10.960Z,68.41
2022-09-23T08:23:10.949Z,73.42
2022-09-23T08:24:10.974Z,71.17
2022-09-23T08:25:10.933Z,73.28
2022-09-23T08:26:18.266Z,72.91
2022-09-23T08:27:11.927Z,68.48
2022-09-23T08:28:10.897Z,66.94
2022-09-23T08:29:10.924Z,69.76
2022-09-23T08:30:10.870Z,66.00
2022-09-23T08:31:10.922Z,66.20
2022-09-23T08:32:10.883Z,70.19
2022-09-23T08:33:10.842Z,68.55
2022-09-23T08:34:10.887Z,66.44
2022-09-23T08:35:10.824Z,69.19
2022-09-23T08:36:10.834Z,61.58
2022-09-23T08:37:10.805Z,62.88
2022-09-23T08:38:10.798Z,70.70
2022-09-23T08:39:10.772Z,67.82
2022-09-23T08:40:10.899Z,68.76
2022-09-23T08:41:10.781Z,65.14
2022-09-23T08:42:10.754Z,67.85
2022-09-23T08:43:10.735Z,68.39
2022-09-23T08:44:10.753Z,69.16
2022-09-23T08:45:10.705Z,65.42
2022-09-23T08:46:10.737Z,64.92
2022-09-23T08:47:10.699Z,61.27
2022-09-23T08:48:12.988Z,62.80
2022-09-23T08:49:10.691Z,60.55
2022-09-23T08:50:10.690Z,62.72
2022-09-23T08:51:10.613Z,69.99
2022-09-23T08:52:10.636Z,65.01
2022-09-23T08:53:10.609Z,64.81
2022-09-23T08:54:10.627Z,65.35
2022-09-23T08:55:10.587Z,63.21
2022-09-23T08:56:10.573Z,62.50
2022-09-23T08:57:10.613Z,64.88
2022-09-23T08:58:26.627Z,62.77
2022-09-23T08:59:11.584Z,63.61
2022-09-23T09:00:10.519Z,59.62
2022-09-23T09:01:10.583Z,61.10
2022-09-23T09:02:10.583Z,65.88
2022-09-23T09:03:10.480Z,61.94
2022-09-23T09:04:12.596Z,60.86
2022-09-23T09:05:10.483Z,68.52
2022-09-23T09:06:10.470Z,64.86
2022-09-23T09:07:36.278Z,60.92
2022-09-23T09:08:11.433Z,60.65
2022-09-23T09:09:10.529Z,60.28
2022-09-23T09:10:10.452Z,58.68
2022-09-23T09:11:10.417Z,58.11
2022-09-23T09:12:10.427Z,68.26
2022-09-23T09:13:10.419Z,64.89
2022-09-23T09:14:10.447Z,60.96
2022-09-23T09:15:10.354Z,60.06
2022-09-23T09:16:10.524Z,60.16
2022-09-23T09:17:10.372Z,56.95
2022-09-23T09:18:10.341Z,62.42
2022-09-23T09:19:10.393Z,58.25
2022-09-23T09:20:10.335Z,61.38
2022-09-23T09:21:10.294Z,59.08
2022-09-23T09:22:10.315Z,59.12
2022-09-23T09:23:10.284Z,57.39
2022-09-23T09:24:10.369Z,63.26
2022-09-23T09:25:10.253Z,60.91
2022-09-23T09:26:10.244Z,59.14
2022-09-23T09:27:10.220Z,58.24
2022-09-23T09:28:10.264Z,58.14
2022-09-23T09:29:30.747Z,55.99
2022-09-23T09:30:11.229Z,55.82
2022-09-23T09:31:10.231Z,56.32
2022-09-23T09:32:10.192Z,58.42
2022-09-23T09:33:10.191Z,59.97
2022-09-23T09:34:10.208Z,59.64
2022-09-23T09:35:10.214Z,56.88
2022-09-23T09:36:10.144Z,54.99
2022-09-23T09:37:10.135Z,61.32
2022-09-23T09:38:10.145Z,57.73
2022-09-23T09:39:10.142Z,55.80
2022-09-23T09:40:10.163Z,56.33
2022-09-23T09:41:10.081Z,54.53
2022-09-23T09:42:10.088Z,52.39
2022-09-23T09:43:10.056Z,58.88
2022-09-23T09:44:10.139Z,57.31
2022-09-23T09:45:10.036Z,58.95
2022-09-23T09:46:10.090Z,58.65
2022-09-23T09:47:10.004Z,56.76
2022-09-23T09:48:10.026Z,60.12
2022-09-23T09:49:10.102Z,60.26
2022-09-23T09:50:10.017Z,56.05
2022-09-23T09:51:09.947Z,55.00
2022-09-23T09:52:09.970Z,55.03
2022-09-23T09:53:09.908Z,50.65
2022-09-23T09:54:09.904Z,52.62
2022-09-23T09:55:09.878Z,58.45
2022-09-23T09:56:09.841Z,52.37
2022-09-23T09:57:09.853Z,56.18
2022-09-23T09:58:09.837Z,53.06
2022-09-23T09:59:09.898Z,52.94
2022-09-23T10:00:09.822Z,55.54
2022-09-23T10:01:09.831Z,60.58
2022-09-23T10:02:09.817Z,58.00
2022-09-23T10:03:09.764Z,55.16
2022-09-23T10:04:09.850Z,54.11
2022-09-23T10:05:09.755Z,51.57
2022-09-23T10:06:09.762Z,51.00
2022-09-23T10:07:09.758Z,55.18
2022-09-23T10:08:09.723Z,53.24
2022-09-23T10:09:09.782Z,54.24
2022-09-23T10:10:22.272Z,52.51
2022-09-23T10:11:10.716Z,50.60
2022-09-23T10:12:09.676Z,48.41
2022-09-23T10:13:09.684Z,50.43
2022-09-23T10:14:09.710Z,51.03
2022-09-23T10:15:09.663Z,50.40
2022-09-23T10:16:09.629Z,50.13
2022-09-23T10:17:09.607Z,46.53
2022-09-23T10:18:09.637Z,51.30
2022-09-23T10:19:09.635Z,46.25
2022-09-23T10:20:09.667Z,45.78
2022-09-23T10:21:09.581Z,49.23
2022-09-23T10:22:09.575Z,48.29
2022-09-23T10:23:09.560Z,44.96
2022-09-23T10:24:09.531Z,50.01
2022-09-23T10:25:09.571Z,52.07
2022-09-23T10:26:09.524Z,45.21
2022-09-23T10:27:09.505Z,51.05
2022-09-23T10:28:09.503Z,46.80
2022-09-23T10:29:09.526Z,50.65
2022-09-23T10:30:09.475Z,46.78
2022-09-23T10:31:09.501Z,53.93
2022-09-23T10:32:09.470Z,45.86
2022-09-23T10:33:09.461Z,46.84
2022-09-23T10:34:09.498Z,48.86
2022-09-23T10:35:09.427Z,47.79
2022-09-23T10:36:09.425Z,48.86
2022-09-23T10:37:09.402Z,52.22
2022-09-23T10:38:09.401Z,45.45
2022-09-23T10:39:09.447Z,46.79
2022-09-23T10:40:09.430Z,49.66
2022-09-23T10:42:09.365Z,50.90
2022-09-23T10:43:09.354Z,50.93
2022-09-23T10:44:09.426Z,42.53
2022-09-23T10:45:09.399Z,46.68
2022-09-23T10:46:09.356Z,45.45
2022-09-23T10:47:09.318Z,44.13
2022-09-23T10:48:09.287Z,43.84
2022-09-23T10:49:09.293Z,46.88
2022-09-23T10:50:09.317Z,48.17
2022-09-23T10:51:09.269Z,45.50
2022-09-23T10:52:09.242Z,47.05
2022-09-23T10:53:09.261Z,48.96
2022-09-23T10:54:09.226Z,43.80
2022-09-23T10:55:09.260Z,50.31
2022-09-23T10:56:09.209Z,51.79
2022-09-23T10:57:09.183Z,46.31
2022-09-23T10:58:09.178Z,45.87
2022-09-23T10:59:09.155Z,42.63
2022-09-23T11:00:09.210Z,50.52
2022-09-23T11:01:09.264Z,54.40
2022-09-23T11:02:09.155Z,43.68
2022-09-23T11:03:09.133Z,49.09
2022-09-23T11:04:09.324Z,46.81
2022-09-23T11:05:09.253Z,47.23
2022-09-23T11:06:09.112Z,47.01
2022-09-23T11:07:09.082Z,42.17
2022-09-23T11:08:09.089Z,44.34
2022-09-23T11:09:09.076Z,46.46
2022-09-23T11:10:23.280Z,49.55
2022-09-23T11:11:10.060Z,47.44
2022-09-23T11:12:09.054Z,45.64
2022-09-23T11:13:09.034Z,49.40
2022-09-23T11:14:09.133Z,47.89
2022-09-23T11:15:09.069Z,45.00
2022-09-23T11:16:09.031Z,44.84
2022-09-23T11:17:09.051Z,51.84
2022-09-23T11:18:08.987Z,48.66
2022-09-23T11:19:08.980Z,50.08
2022-09-23T11:20:09.000Z,51.47
2022-09-23T11:21:08.960Z,46.90
2022-09-23T11:22:08.963Z,44.68
2022-09-23T11:23:08.931Z,45.21
2022-09-23T11:24:08.933Z,54.09
2022-09-23T11:25:08.946Z,52.27
2022-09-23T11:26:08.914Z,51.47
2022-09-23T11:27:08.895Z,53.54
2022-09-23T11:28:08.892Z,50.95
2022-09-23T11:29:08.856Z,49.69
2022-09-23T11:30:08.879Z,60.39
2022-09-23T11:31:08.891Z,58.59
2022-09-23T11:32:08.856Z,56.14
2022-09-23T11:33:08.831Z,52.49
2022-09-23T11:34:08.893Z,49.48
2022-09-23T11:35:08.812Z,49.85
2022-09-23T11:36:08.838Z,50.27
2022-09-23T11:37:08.787Z,48.68
2022-09-23T11:38:08.767Z,48.16
2022-09-23T11:39:08.765Z,45.75
2022-09-23T11:40:08.839Z,49.63
2022-09-23T11:41:08.800Z,44.38
2022-09-23T11:42:08.719Z,49.68
2022-09-23T11:43:08.728Z,41.97
2022-09-23T11:44:08.714Z,50.18
2022-09-23T11:45:08.726Z,46.48
2022-09-23T11:46:08.710Z,48.30
2022-09-23T11:47:08.666Z,43.71
2022-09-23T11:48:08.715Z,40.92
2022-09-23T11:49:08.650Z,50.73
2022-09-23T11:50:08.675Z,44.75
2022-09-23T11:51:08.641Z,44.57
2022-09-23T11:52:08.626Z,39.35
2022-09-23T11:53:08.606Z,41.38
2022-09-23T11:54:08.575Z,42.77
2022-09-23T11:55:17.391Z,45.81
2022-09-23T11:56:09.587Z,46.48
2022-09-23T11:57:08.576Z,47.08
2022-09-23T11:58:17.380Z,46.98
2022-09-23T11:59:09.836Z,46.94
2022-09-23T12:00:08.558Z,46.81
2022-09-23T12:01:08.525Z,46.58
2022-09-23T12:02:18.463Z,52.34
2022-09-23T12:03:09.626Z,49.25
2022-09-23T12:04:18.333Z,53.49
2022-09-23T12:05:09.610Z,48.28
2022-09-23T12:06:08.460Z,49.51
2022-09-23T12:07:08.443Z,48.49
2022-09-23T12:08:08.453Z,49.53
2022-09-23T12:09:08.443Z,48.02
2022-09-23T12:10:08.450Z,47.92
2022-09-23T12:11:08.415Z,44.44
2022-09-23T12:12:08.421Z,42.83
2022-09-23T12:13:08.392Z,44.78
2022-09-23T12:14:08.412Z,48.01
2022-09-23T12:15:08.429Z,45.40
2022-09-23T12:16:08.349Z,49.85
2022-09-23T12:17:08.350Z,47.71
2022-09-23T12:18:08.324Z,47.21
2022-09-23T12:19:08.338Z,51.95
2022-09-23T12:20:08.331Z,44.84
2022-09-23T12:21:08.291Z,42.71
2022-09-23T12:22:08.292Z,45.37
2022-09-23T12:23:08.269Z,45.76
2022-09-23T12:24:08.289Z,49.22
2022-09-23T12:25:08.309Z,47.77
2022-09-23T12:26:08.258Z,50.77
2022-09-23T12:27:08.240Z,49.27
2022-09-23T12:28:08.230Z,52.44
2022-09-23T12:29:08.229Z,46.75
2022-09-23T12:30:08.218Z,50.70
2022-09-23T12:31:08.329Z,48.88
2022-09-23T12:32:08.187Z,51.95
2022-09-23T12:33:08.182Z,48.68
2022-09-23T12:34:08.295Z,42.87
2022-09-23T12:35:08.179Z,49.29
2022-09-23T12:36:08.143Z,46.69
2022-09-23T12:37:08.142Z,50.79
2022-09-23T12:38:08.118Z,49.87
2022-09-23T12:39:08.110Z,50.45
2022-09-23T12:40:08.204Z,47.05
2022-09-23T12:41:08.087Z,52.62
2022-09-23T12:42:08.075Z,52.19
2022-09-23T12:43:08.048Z,52.27
2022-09-23T12:44:08.121Z,48.58
2022-09-23T12:45:08.093Z,46.70
2022-09-23T12:46:08.072Z,44.01
2022-09-23T12:47:08.025Z,49.30
2022-09-23T12:48:08.032Z,47.03
2022-09-23T12:49:07.981Z,46.45
2022-09-23T12:50:08.021Z,49.82
2022-09-23T12:51:07.962Z,47.25
2022-09-23T12:52:07.953Z,48.17
2022-09-23T12:53:07.956Z,48.99